sensor_id;sensor_type;location;lat;lon;timestamp;P1;durP1;ratioP1;P2;durP2;ratioP2
51489;SDS011;57752;53.574;9.736;2023-09-19T00:04:25;11.27;;;3.40;;
51489;SDS011;57752;53.574;9.736;2023-09-19T00:09:28;9.88;;;3.33;;
51489;SDS011;57752;53.574;9.736;2023-09-19T00:14:29;12.48;;;3.72;;
51489;SDS011;57752;53.574;9.736;2023-09-19T00:19:29;11.20;;;3.50;;
51489;SDS011;57752;53.574;9.736;2023-09-19T00:24:29;13.25;;;3.90;;
51489;SDS011;57752;53.574;9.736;2023-09-19T00:29:29;12.93;;;4.13;;
51489;SDS011;57752;53.574;9.736;2023-09-19T00:34:31;10.77;;;3.90;;
51489;SDS011;57752;53.574;9.736;2023-09-19T00:44:34;11.20;;;4.28;;
51489;SDS011;57752;53.574;9.736;2023-09-19T00:49:36;14.02;;;4.75;;
51489;SDS011;57752;53.574;9.736;2023-09-19T00:54:38;12.15;;;4.47;;
51489;SDS011;57752;53.574;9.736;2023-09-19T00:59:38;13.40;;;4.50;;
51489;SDS011;57752;53.574;9.736;2023-09-19T01:04:38;12.68;;;4.65;;
51489;SDS011;57752;53.574;9.736;2023-09-19T01:09:40;13.75;;;5.03;;
51489;SDS011;57752;53.574;9.736;2023-09-19T01:14:57;14.90;;;5.63;;
51489;SDS011;57752;53.574;9.736;2023-09-19T01:20:03;13.30;;;5.20;;
51489;SDS011;57752;53.574;9.736;2023-09-19T01:30:14;11.90;;;4.80;;
51489;SDS011;57752;53.574;9.736;2023-09-19T01:35:17;13.85;;;4.45;;
51489;SDS011;57752;53.574;9.736;2023-09-19T01:40:18;14.30;;;4.45;;
51489;SDS011;57752;53.574;9.736;2023-09-19T01:45:32;13.45;;;4.43;;
51489;SDS011;57752;53.574;9.736;2023-09-19T01:50:52;13.95;;;3.80;;
51489;SDS011;57752;53.574;9.736;2023-09-19T01:55:55;15.18;;;4.18;;
51489;SDS011;57752;53.574;9.736;2023-09-19T02:00:55;10.10;;;3.45;;
51489;SDS011;57752;53.574;9.736;2023-09-19T02:05:57;11.65;;;3.53;;
51489;SDS011;57752;53.574;9.736;2023-09-19T02:10:57;13.60;;;3.65;;
51489;SDS011;57752;53.574;9.736;2023-09-19T02:15:57;14.13;;;4.10;;
51489;SDS011;57752;53.574;9.736;2023-09-19T02:20:57;13.85;;;4.43;;
51489;SDS011;57752;53.574;9.736;2023-09-19T02:25:58;12.15;;;5.40;;
51489;SDS011;57752;53.574;9.736;2023-09-19T02:31:00;13.55;;;6.05;;
51489;SDS011;57752;53.574;9.736;2023-09-19T02:36:00;13.40;;;6.03;;
51489;SDS011;57752;53.574;9.736;2023-09-19T02:41:03;16.63;;;5.22;;
51489;SDS011;57752;53.574;9.736;2023-09-19T02:46:04;14.07;;;4.93;;
51489;SDS011;57752;53.574;9.736;2023-09-19T02:51:04;12.02;;;4.53;;
51489;SDS011;57752;53.574;9.736;2023-09-19T02:56:04;14.43;;;4.32;;
51489;SDS011;57752;53.574;9.736;2023-09-19T03:01:08;14.82;;;3.88;;
51489;SDS011;57752;53.574;9.736;2023-09-19T03:06:09;13.40;;;3.78;;
51489;SDS011;57752;53.574;9.736;2023-09-19T03:11:09;11.95;;;3.92;;
51489;SDS011;57752;53.574;9.736;2023-09-19T03:16:11;12.50;;;3.88;;
51489;SDS011;57752;53.574;9.736;2023-09-19T03:21:11;11.73;;;3.42;;
51489;SDS011;57752;53.574;9.736;2023-09-19T03:26:12;15.80;;;4.07;;
51489;SDS011;57752;53.574;9.736;2023-09-19T03:31:12;12.27;;;4.00;;
51489;SDS011;57752;53.574;9.736;2023-09-19T03:36:13;12.55;;;3.80;;
51489;SDS011;57752;53.574;9.736;2023-09-19T03:41:16;11.63;;;3.75;;
51489;SDS011;57752;53.574;9.736;2023-09-19T03:46:17;14.20;;;3.92;;
51489;SDS011;57752;53.574;9.736;2023-09-19T03:51:17;12.75;;;4.07;;
51489;SDS011;57752;53.574;9.736;2023-09-19T03:56:17;11.57;;;3.47;;
51489;SDS011;57752;53.574;9.736;2023-09-19T04:01:17;14.15;;;3.55;;
51489;SDS011;57752;53.574;9.736;2023-09-19T04:06:18;13.13;;;3.75;;
51489;SDS011;57752;53.574;9.736;2023-09-19T04:11:18;14.05;;;4.22;;
51489;SDS011;57752;53.574;9.736;2023-09-19T04:16:19;12.77;;;3.60;;
51489;SDS011;57752;53.574;9.736;2023-09-19T04:21:19;12.90;;;3.63;;
51489;SDS011;57752;53.574;9.736;2023-09-19T04:26:19;14.48;;;3.40;;
51489;SDS011;57752;53.574;9.736;2023-09-19T04:31:19;12.73;;;3.00;;
51489;SDS011;57752;53.574;9.736;2023-09-19T04:36:21;14.43;;;3.37;;
51489;SDS011;57752;53.574;9.736;2023-09-19T04:41:22;16.20;;;3.20;;
51489;SDS011;57752;53.574;9.736;2023-09-19T04:46:23;13.18;;;3.70;;
51489;SDS011;57752;53.574;9.736;2023-09-19T04:51:23;12.40;;;3.45;;
51489;SDS011;57752;53.574;9.736;2023-09-19T04:56:24;13.07;;;3.35;;
51489;SDS011;57752;53.574;9.736;2023-09-19T05:01:24;14.27;;;3.75;;
51489;SDS011;57752;53.574;9.736;2023-09-19T05:06:24;12.43;;;3.25;;
51489;SDS011;57752;53.574;9.736;2023-09-19T05:11:26;13.88;;;3.90;;
51489;SDS011;57752;53.574;9.736;2023-09-19T05:16:28;11.23;;;3.00;;
51489;SDS011;57752;53.574;9.736;2023-09-19T05:21:28;15.20;;;3.50;;
51489;SDS011;57752;53.574;9.736;2023-09-19T05:26:30;15.32;;;3.75;;
51489;SDS011;57752;53.574;9.736;2023-09-19T05:31:31;11.73;;;3.13;;
51489;SDS011;57752;53.574;9.736;2023-09-19T05:36:31;15.45;;;3.50;;
51489;SDS011;57752;53.574;9.736;2023-09-19T05:41:31;13.80;;;3.50;;
51489;SDS011;57752;53.574;9.736;2023-09-19T05:46:31;15.40;;;4.05;;
51489;SDS011;57752;53.574;9.736;2023-09-19T05:51:31;12.13;;;3.35;;
51489;SDS011;57752;53.574;9.736;2023-09-19T05:56:31;15.15;;;3.85;;
51489;SDS011;57752;53.574;9.736;2023-09-19T06:01:31;13.60;;;3.33;;
51489;SDS011;57752;53.574;9.736;2023-09-19T06:06:34;15.45;;;4.22;;
51489;SDS011;57752;53.574;9.736;2023-09-19T06:11:38;14.65;;;3.30;;
51489;SDS011;57752;53.574;9.736;2023-09-19T06:16:39;12.60;;;3.05;;
51489;SDS011;57752;53.574;9.736;2023-09-19T06:21:40;15.98;;;3.35;;
51489;SDS011;57752;53.574;9.736;2023-09-19T06:26:41;15.18;;;3.60;;
51489;SDS011;57752;53.574;9.736;2023-09-19T06:31:41;14.15;;;3.40;;
51489;SDS011;57752;53.574;9.736;2023-09-19T06:36:42;14.70;;;3.30;;
51489;SDS011;57752;53.574;9.736;2023-09-19T06:41:43;12.55;;;3.28;;
51489;SDS011;57752;53.574;9.736;2023-09-19T06:46:45;13.10;;;3.35;;
51489;SDS011;57752;53.574;9.736;2023-09-19T06:51:46;16.40;;;3.55;;
51489;SDS011;57752;53.574;9.736;2023-09-19T06:56:46;18.92;;;4.38;;
51489;SDS011;57752;53.574;9.736;2023-09-19T07:01:46;14.45;;;3.85;;
51489;SDS011;57752;53.574;9.736;2023-09-19T07:06:50;15.40;;;3.40;;
51489;SDS011;57752;53.574;9.736;2023-09-19T07:11:50;16.60;;;4.03;;
51489;SDS011;57752;53.574;9.736;2023-09-19T07:16:51;12.85;;;3.45;;
51489;SDS011;57752;53.574;9.736;2023-09-19T07:21:52;18.30;;;4.30;;
51489;SDS011;57752;53.574;9.736;2023-09-19T07:26:52;14.73;;;3.60;;
51489;SDS011;57752;53.574;9.736;2023-09-19T07:31:52;15.30;;;3.70;;
51489;SDS011;57752;53.574;9.736;2023-09-19T07:36:52;17.70;;;4.50;;
51489;SDS011;57752;53.574;9.736;2023-09-19T07:41:52;18.48;;;4.15;;
51489;SDS011;57752;53.574;9.736;2023-09-19T07:46:54;16.85;;;4.05;;
51489;SDS011;57752;53.574;9.736;2023-09-19T07:51:54;13.13;;;4.18;;
51489;SDS011;57752;53.574;9.736;2023-09-19T07:56:56;16.30;;;3.80;;
51489;SDS011;57752;53.574;9.736;2023-09-19T08:01:58;13.80;;;3.92;;
51489;SDS011;57752;53.574;9.736;2023-09-19T08:06:58;20.77;;;4.70;;
51489;SDS011;57752;53.574;9.736;2023-09-19T08:12:00;18.17;;;3.97;;
51489;SDS011;57752;53.574;9.736;2023-09-19T08:17:05;22.20;;;4.63;;
51489;SDS011;57752;53.574;9.736;2023-09-19T08:22:05;20.90;;;4.47;;
51489;SDS011;57752;53.574;9.736;2023-09-19T08:27:05;20.00;;;4.70;;
51489;SDS011;57752;53.574;9.736;2023-09-19T08:32:09;13.45;;;3.67;;
51489;SDS011;57752;53.574;9.736;2023-09-19T08:37:09;16.23;;;4.05;;
51489;SDS011;57752;53.574;9.736;2023-09-19T08:42:10;17.98;;;3.75;;
51489;SDS011;57752;53.574;9.736;2023-09-19T08:47:12;17.77;;;4.13;;
51489;SDS011;57752;53.574;9.736;2023-09-19T08:52:20;18.63;;;4.40;;
51489;SDS011;57752;53.574;9.736;2023-09-19T08:57:23;19.42;;;4.80;;
51489;SDS011;57752;53.574;9.736;2023-09-19T09:02:23;19.17;;;4.28;;
51489;SDS011;57752;53.574;9.736;2023-09-19T09:07:25;18.17;;;4.13;;
51489;SDS011;57752;53.574;9.736;2023-09-19T09:12:25;22.43;;;4.47;;
51489;SDS011;57752;53.574;9.736;2023-09-19T09:17:26;16.77;;;3.60;;
51489;SDS011;57752;53.574;9.736;2023-09-19T09:22:26;16.37;;;3.67;;
51489;SDS011;57752;53.574;9.736;2023-09-19T09:27:26;13.80;;;3.35;;
51489;SDS011;57752;53.574;9.736;2023-09-19T09:32:27;14.75;;;3.60;;
51489;SDS011;57752;53.574;9.736;2023-09-19T09:37:36;16.83;;;3.42;;
51489;SDS011;57752;53.574;9.736;2023-09-19T09:42:38;13.37;;;3.10;;
51489;SDS011;57752;53.574;9.736;2023-09-19T09:47:42;14.95;;;3.72;;
51489;SDS011;57752;53.574;9.736;2023-09-19T09:52:49;14.88;;;3.95;;
51489;SDS011;57752;53.574;9.736;2023-09-19T09:58:01;18.33;;;3.28;;
51489;SDS011;57752;53.574;9.736;2023-09-19T10:03:20;15.10;;;3.42;;
51489;SDS011;57752;53.574;9.736;2023-09-19T10:08:23;17.52;;;3.83;;
51489;SDS011;57752;53.574;9.736;2023-09-19T10:13:24;13.98;;;3.45;;
51489;SDS011;57752;53.574;9.736;2023-09-19T10:18:27;12.65;;;3.33;;
51489;SDS011;57752;53.574;9.736;2023-09-19T10:23:29;15.80;;;3.80;;
51489;SDS011;57752;53.574;9.736;2023-09-19T10:28:34;18.85;;;3.38;;
51489;SDS011;57752;53.574;9.736;2023-09-19T10:33:35;11.73;;;2.83;;
51489;SDS011;57752;53.574;9.736;2023-09-19T10:38:37;18.48;;;3.00;;
51489;SDS011;57752;53.574;9.736;2023-09-19T10:43:40;13.73;;;3.70;;
51489;SDS011;57752;53.574;9.736;2023-09-19T10:48:44;16.55;;;3.10;;
51489;SDS011;57752;53.574;9.736;2023-09-19T10:53:50;17.67;;;3.50;;
51489;SDS011;57752;53.574;9.736;2023-09-19T10:58:51;13.95;;;3.22;;
51489;SDS011;57752;53.574;9.736;2023-09-19T11:03:51;13.52;;;3.30;;
51489;SDS011;57752;53.574;9.736;2023-09-19T11:09:11;14.93;;;3.33;;
51489;SDS011;57752;53.574;9.736;2023-09-19T11:19:24;16.40;;;3.95;;
51489;SDS011;57752;53.574;9.736;2023-09-19T11:24:44;30.45;;;4.97;;
51489;SDS011;57752;53.574;9.736;2023-09-19T11:29:45;20.58;;;3.80;;
51489;SDS011;57752;53.574;9.736;2023-09-19T11:34:47;17.77;;;3.78;;
51489;SDS011;57752;53.574;9.736;2023-09-19T11:40:06;16.33;;;3.15;;
51489;SDS011;57752;53.574;9.736;2023-09-19T11:50:19;18.92;;;3.05;;
51489;SDS011;57752;53.574;9.736;2023-09-19T11:55:20;26.80;;;5.45;;
51489;SDS011;57752;53.574;9.736;2023-09-19T12:00:21;15.38;;;3.33;;
51489;SDS011;57752;53.574;9.736;2023-09-19T12:05:29;15.20;;;3.80;;
51489;SDS011;57752;53.574;9.736;2023-09-19T12:10:29;13.20;;;3.60;;
51489;SDS011;57752;53.574;9.736;2023-09-19T12:15:29;14.75;;;3.35;;
51489;SDS011;57752;53.574;9.736;2023-09-19T12:20:42;13.68;;;3.60;;
51489;SDS011;57752;53.574;9.736;2023-09-19T12:25:44;19.98;;;4.20;;
51489;SDS011;57752;53.574;9.736;2023-09-19T12:30:47;14.70;;;3.45;;
51489;SDS011;57752;53.574;9.736;2023-09-19T12:35:47;16.58;;;3.78;;
51489;SDS011;57752;53.574;9.736;2023-09-19T12:40:47;18.25;;;3.75;;
51489;SDS011;57752;53.574;9.736;2023-09-19T12:45:49;14.57;;;3.40;;
51489;SDS011;57752;53.574;9.736;2023-09-19T12:51:05;14.65;;;3.72;;
51489;SDS011;57752;53.574;9.736;2023-09-19T12:56:06;18.42;;;4.22;;
51489;SDS011;57752;53.574;9.736;2023-09-19T13:01:13;14.52;;;3.70;;
51489;SDS011;57752;53.574;9.736;2023-09-19T13:06:14;15.85;;;3.67;;
51489;SDS011;57752;53.574;9.736;2023-09-19T13:11:17;14.38;;;3.63;;
51489;SDS011;57752;53.574;9.736;2023-09-19T13:16:21;20.70;;;3.97;;
51489;SDS011;57752;53.574;9.736;2023-09-19T13:21:31;28.33;;;4.50;;
51489;SDS011;57752;53.574;9.736;2023-09-19T13:26:43;14.05;;;3.40;;
51489;SDS011;57752;53.574;9.736;2023-09-19T13:31:45;15.82;;;3.40;;
51489;SDS011;57752;53.574;9.736;2023-09-19T13:36:45;16.70;;;3.85;;
51489;SDS011;57752;53.574;9.736;2023-09-19T13:41:48;17.45;;;3.85;;
51489;SDS011;57752;53.574;9.736;2023-09-19T13:46:48;15.50;;;3.58;;
51489;SDS011;57752;53.574;9.736;2023-09-19T13:51:48;18.05;;;4.07;;
51489;SDS011;57752;53.574;9.736;2023-09-19T13:56:48;12.63;;;3.17;;
51489;SDS011;57752;53.574;9.736;2023-09-19T14:01:49;15.48;;;3.22;;
51489;SDS011;57752;53.574;9.736;2023-09-19T14:06:49;12.77;;;3.55;;
51489;SDS011;57752;53.574;9.736;2023-09-19T14:11:50;14.20;;;3.47;;
51489;SDS011;57752;53.574;9.736;2023-09-19T14:16:52;14.48;;;3.25;;
51489;SDS011;57752;53.574;9.736;2023-09-19T14:21:53;13.68;;;3.42;;
51489;SDS011;57752;53.574;9.736;2023-09-19T14:26:55;77.60;;;8.23;;
51489;SDS011;57752;53.574;9.736;2023-09-19T14:31:56;13.27;;;3.53;;
51489;SDS011;57752;53.574;9.736;2023-09-19T14:36:57;13.80;;;3.10;;
51489;SDS011;57752;53.574;9.736;2023-09-19T14:41:57;15.30;;;4.10;;
51489;SDS011;57752;53.574;9.736;2023-09-19T14:46:58;19.13;;;3.65;;
51489;SDS011;57752;53.574;9.736;2023-09-19T14:51:58;16.90;;;2.97;;
51489;SDS011;57752;53.574;9.736;2023-09-19T14:56:59;13.35;;;2.88;;
51489;SDS011;57752;53.574;9.736;2023-09-19T15:02:04;11.82;;;3.03;;
51489;SDS011;57752;53.574;9.736;2023-09-19T15:07:04;17.52;;;3.58;;
51489;SDS011;57752;53.574;9.736;2023-09-19T15:12:05;15.52;;;3.38;;
51489;SDS011;57752;53.574;9.736;2023-09-19T15:17:05;16.52;;;3.70;;
51489;SDS011;57752;53.574;9.736;2023-09-19T15:22:05;16.55;;;3.30;;
51489;SDS011;57752;53.574;9.736;2023-09-19T15:27:06;12.90;;;3.42;;
51489;SDS011;57752;53.574;9.736;2023-09-19T15:32:06;15.50;;;3.35;;
51489;SDS011;57752;53.574;9.736;2023-09-19T15:37:07;15.85;;;3.63;;
51489;SDS011;57752;53.574;9.736;2023-09-19T15:42:07;15.75;;;3.13;;
51489;SDS011;57752;53.574;9.736;2023-09-19T15:47:07;16.60;;;3.35;;
51489;SDS011;57752;53.574;9.736;2023-09-19T15:52:08;15.73;;;3.30;;
51489;SDS011;57752;53.574;9.736;2023-09-19T15:57:08;13.52;;;3.13;;
51489;SDS011;57752;53.574;9.736;2023-09-19T16:02:10;14.68;;;3.30;;
51489;SDS011;57752;53.574;9.736;2023-09-19T16:07:10;13.90;;;3.20;;
51489;SDS011;57752;53.574;9.736;2023-09-19T16:12:10;15.15;;;3.00;;
51489;SDS011;57752;53.574;9.736;2023-09-19T16:17:11;10.93;;;2.90;;
51489;SDS011;57752;53.574;9.736;2023-09-19T16:22:11;15.40;;;3.13;;
51489;SDS011;57752;53.574;9.736;2023-09-19T16:27:11;15.75;;;3.42;;
51489;SDS011;57752;53.574;9.736;2023-09-19T16:32:11;14.15;;;2.80;;
51489;SDS011;57752;53.574;9.736;2023-09-19T16:37:12;17.80;;;3.25;;
51489;SDS011;57752;53.574;9.736;2023-09-19T16:42:14;15.68;;;3.25;;
51489;SDS011;57752;53.574;9.736;2023-09-19T16:47:15;13.80;;;3.33;;
51489;SDS011;57752;53.574;9.736;2023-09-19T16:52:16;12.15;;;3.47;;
51489;SDS011;57752;53.574;9.736;2023-09-19T16:57:16;13.43;;;3.45;;
51489;SDS011;57752;53.574;9.736;2023-09-19T17:02:16;13.32;;;3.03;;
51489;SDS011;57752;53.574;9.736;2023-09-19T17:07:16;13.80;;;3.28;;
51489;SDS011;57752;53.574;9.736;2023-09-19T17:12:16;17.20;;;3.42;;
51489;SDS011;57752;53.574;9.736;2023-09-19T17:17:16;13.82;;;3.30;;
51489;SDS011;57752;53.574;9.736;2023-09-19T17:22:17;13.00;;;3.30;;
51489;SDS011;57752;53.574;9.736;2023-09-19T17:27:18;12.07;;;2.92;;
51489;SDS011;57752;53.574;9.736;2023-09-19T17:32:18;14.73;;;3.22;;
51489;SDS011;57752;53.574;9.736;2023-09-19T17:37:18;13.25;;;2.92;;
51489;SDS011;57752;53.574;9.736;2023-09-19T17:42:18;14.25;;;3.58;;
51489;SDS011;57752;53.574;9.736;2023-09-19T17:47:18;17.50;;;3.63;;
51489;SDS011;57752;53.574;9.736;2023-09-19T17:52:19;13.65;;;3.03;;
51489;SDS011;57752;53.574;9.736;2023-09-19T17:57:20;13.98;;;3.00;;
51489;SDS011;57752;53.574;9.736;2023-09-19T18:02:21;12.38;;;3.70;;
51489;SDS011;57752;53.574;9.736;2023-09-19T18:07:21;17.70;;;2.72;;
51489;SDS011;57752;53.574;9.736;2023-09-19T18:12:21;12.50;;;2.90;;
51489;SDS011;57752;53.574;9.736;2023-09-19T18:17:21;11.63;;;2.70;;
51489;SDS011;57752;53.574;9.736;2023-09-19T18:22:22;12.52;;;3.22;;
51489;SDS011;57752;53.574;9.736;2023-09-19T18:27:22;15.57;;;3.60;;
51489;SDS011;57752;53.574;9.736;2023-09-19T18:32:23;10.60;;;2.78;;
51489;SDS011;57752;53.574;9.736;2023-09-19T18:37:23;13.00;;;2.80;;
51489;SDS011;57752;53.574;9.736;2023-09-19T18:42:24;9.60;;;2.50;;
51489;SDS011;57752;53.574;9.736;2023-09-19T18:47:26;12.73;;;2.70;;
51489;SDS011;57752;53.574;9.736;2023-09-19T18:52:28;12.48;;;3.13;;
51489;SDS011;57752;53.574;9.736;2023-09-19T18:57:28;9.35;;;2.65;;
51489;SDS011;57752;53.574;9.736;2023-09-19T19:02:28;13.05;;;2.83;;
51489;SDS011;57752;53.574;9.736;2023-09-19T19:07:28;11.30;;;2.50;;
51489;SDS011;57752;53.574;9.736;2023-09-19T19:12:32;16.08;;;3.28;;
51489;SDS011;57752;53.574;9.736;2023-09-19T19:17:33;11.57;;;2.72;;
51489;SDS011;57752;53.574;9.736;2023-09-19T19:22:33;10.55;;;2.72;;
51489;SDS011;57752;53.574;9.736;2023-09-19T19:27:36;13.88;;;3.53;;
51489;SDS011;57752;53.574;9.736;2023-09-19T19:32:37;11.70;;;2.78;;
51489;SDS011;57752;53.574;9.736;2023-09-19T19:37:37;10.52;;;2.50;;
51489;SDS011;57752;53.574;9.736;2023-09-19T19:42:37;10.70;;;2.70;;
51489;SDS011;57752;53.574;9.736;2023-09-19T19:47:37;13.18;;;2.58;;
51489;SDS011;57752;53.574;9.736;2023-09-19T19:52:37;11.57;;;2.75;;
51489;SDS011;57752;53.574;9.736;2023-09-19T19:57:38;11.52;;;2.38;;
51489;SDS011;57752;53.574;9.736;2023-09-19T20:02:38;12.55;;;2.90;;
51489;SDS011;57752;53.574;9.736;2023-09-19T20:07:38;9.57;;;2.33;;
51489;SDS011;57752;53.574;9.736;2023-09-19T20:12:39;13.18;;;2.90;;
51489;SDS011;57752;53.574;9.736;2023-09-19T20:17:39;12.05;;;2.75;;
51489;SDS011;57752;53.574;9.736;2023-09-19T20:22:39;12.80;;;2.53;;
51489;SDS011;57752;53.574;9.736;2023-09-19T20:27:40;11.55;;;2.40;;
51489;SDS011;57752;53.574;9.736;2023-09-19T20:32:41;9.50;;;2.35;;
51489;SDS011;57752;53.574;9.736;2023-09-19T20:37:41;13.00;;;3.58;;
51489;SDS011;57752;53.574;9.736;2023-09-19T20:42:41;9.73;;;2.40;;
51489;SDS011;57752;53.574;9.736;2023-09-19T20:47:42;9.10;;;2.45;;
51489;SDS011;57752;53.574;9.736;2023-09-19T20:52:42;10.07;;;2.63;;
51489;SDS011;57752;53.574;9.736;2023-09-19T20:57:42;10.07;;;2.67;;
51489;SDS011;57752;53.574;9.736;2023-09-19T21:02:43;8.57;;;2.50;;
51489;SDS011;57752;53.574;9.736;2023-09-19T21:07:47;11.52;;;2.90;;
51489;SDS011;57752;53.574;9.736;2023-09-19T21:12:47;9.80;;;2.60;;
51489;SDS011;57752;53.574;9.736;2023-09-19T21:17:48;12.13;;;2.80;;
51489;SDS011;57752;53.574;9.736;2023-09-19T21:22:48;9.30;;;2.30;;
51489;SDS011;57752;53.574;9.736;2023-09-19T21:27:48;9.40;;;2.40;;
51489;SDS011;57752;53.574;9.736;2023-09-19T21:32:48;12.38;;;2.92;;
51489;SDS011;57752;53.574;9.736;2023-09-19T21:37:49;12.10;;;2.83;;
51489;SDS011;57752;53.574;9.736;2023-09-19T21:42:49;10.05;;;2.50;;
51489;SDS011;57752;53.574;9.736;2023-09-19T21:47:49;12.35;;;2.85;;
51489;SDS011;57752;53.574;9.736;2023-09-19T21:52:49;13.65;;;2.72;;
51489;SDS011;57752;53.574;9.736;2023-09-19T21:57:49;10.40;;;2.88;;
51489;SDS011;57752;53.574;9.736;2023-09-19T22:02:49;12.77;;;3.20;;
51489;SDS011;57752;53.574;9.736;2023-09-19T22:12:52;11.73;;;3.00;;
51489;SDS011;57752;53.574;9.736;2023-09-19T22:17:52;12.57;;;3.17;;
51489;SDS011;57752;53.574;9.736;2023-09-19T22:22:53;9.98;;;3.15;;
51489;SDS011;57752;53.574;9.736;2023-09-19T22:27:55;12.63;;;3.22;;
51489;SDS011;57752;53.574;9.736;2023-09-19T22:32:56;11.73;;;3.42;;
51489;SDS011;57752;53.574;9.736;2023-09-19T22:37:56;13.13;;;3.72;;
51489;SDS011;57752;53.574;9.736;2023-09-19T22:42:57;13.32;;;3.10;;
51489;SDS011;57752;53.574;9.736;2023-09-19T22:47:58;11.20;;;3.47;;
51489;SDS011;57752;53.574;9.736;2023-09-19T22:52:58;10.43;;;3.45;;
51489;SDS011;57752;53.574;9.736;2023-09-19T22:58:03;11.98;;;3.42;;
51489;SDS011;57752;53.574;9.736;2023-09-19T23:03:04;11.82;;;3.10;;
51489;SDS011;57752;53.574;9.736;2023-09-19T23:08:06;10.93;;;3.28;;
51489;SDS011;57752;53.574;9.736;2023-09-19T23:13:09;11.95;;;3.22;;
51489;SDS011;57752;53.574;9.736;2023-09-19T23:18:09;12.65;;;2.90;;
51489;SDS011;57752;53.574;9.736;2023-09-19T23:23:10;14.27;;;3.13;;
51489;SDS011;57752;53.574;9.736;2023-09-19T23:28:15;13.98;;;3.25;;
51489;SDS011;57752;53.574;9.736;2023-09-19T23:33:15;11.52;;;2.80;;
51489;SDS011;57752;53.574;9.736;2023-09-19T23:38:17;9.60;;;3.00;;
51489;SDS011;57752;53.574;9.736;2023-09-19T23:43:17;15.48;;;3.05;;
51489;SDS011;57752;53.574;9.736;2023-09-19T23:48:19;15.38;;;3.15;;
51489;SDS011;57752;53.574;9.736;2023-09-19T23:53:19;11.35;;;2.78;;
51489;SDS011;57752;53.574;9.736;2023-09-19T23:58:19;12.43;;;2.90;;
